sensor_id;sensor_type;location;lat;lon;timestamp;temperature;humidity
55785;DHT22;41709;52.536;5.688;2023-02-15T00:01:38;4.20;85.20
55785;DHT22;41709;52.536;5.688;2023-02-15T00:04:04;4.20;85.10
55785;DHT22;41709;52.536;5.688;2023-02-15T00:06:30;4.20;84.90
55785;DHT22;41709;52.536;5.688;2023-02-15T00:08:57;4.10;84.90
55785;DHT22;41709;52.536;5.688;2023-02-15T00:11:23;4.10;85.00
55785;DHT22;41709;52.536;5.688;2023-02-15T00:16:37;4.10;85.80
55785;DHT22;41709;52.536;5.688;2023-02-15T00:19:03;4.00;85.10
55785;DHT22;41709;52.536;5.688;2023-02-15T00:21:30;4.00;85.20
55785;DHT22;41709;52.536;5.688;2023-02-15T00:23:57;3.90;85.10
55785;DHT22;41709;52.536;5.688;2023-02-15T00:26:23;3.90;85.00
55785;DHT22;41709;52.536;5.688;2023-02-15T00:28:49;3.90;85.20
55785;DHT22;41709;52.536;5.688;2023-02-15T00:31:14;3.80;85.10
55785;DHT22;41709;52.536;5.688;2023-02-15T00:33:40;3.80;85.10
55785;DHT22;41709;52.536;5.688;2023-02-15T00:36:07;3.80;85.20
55785;DHT22;41709;52.536;5.688;2023-02-15T00:38:34;3.80;85.30
55785;DHT22;41709;52.536;5.688;2023-02-15T00:41:01;3.80;85.60
55785;DHT22;41709;52.536;5.688;2023-02-15T00:43:28;3.80;86.10
55785;DHT22;41709;52.536;5.688;2023-02-15T00:45:54;3.80;86.60
55785;DHT22;41709;52.536;5.688;2023-02-15T00:48:20;3.80;86.90
55785;DHT22;41709;52.536;5.688;2023-02-15T00:50:46;3.80;87.10
55785;DHT22;41709;52.536;5.688;2023-02-15T00:53:13;3.80;87.30
55785;DHT22;41709;52.536;5.688;2023-02-15T00:55:39;3.80;87.40
55785;DHT22;41709;52.536;5.688;2023-02-15T00:58:06;3.80;87.60
55785;DHT22;41709;52.536;5.688;2023-02-15T01:00:32;3.80;87.50
55785;DHT22;41709;52.536;5.688;2023-02-15T01:02:57;3.80;87.60
55785;DHT22;41709;52.536;5.688;2023-02-15T01:05:23;3.80;87.40
55785;DHT22;41709;52.536;5.688;2023-02-15T01:07:49;3.80;87.20
55785;DHT22;41709;52.536;5.688;2023-02-15T01:10:14;3.80;87.10
55785;DHT22;41709;52.536;5.688;2023-02-15T01:12:40;3.80;87.10
55785;DHT22;41709;52.536;5.688;2023-02-15T01:15:06;3.80;87.20
55785;DHT22;41709;52.536;5.688;2023-02-15T01:17:31;3.80;87.20
55785;DHT22;41709;52.536;5.688;2023-02-15T01:19:57;3.80;87.30
55785;DHT22;41709;52.536;5.688;2023-02-15T01:22:23;3.80;87.10
55785;DHT22;41709;52.536;5.688;2023-02-15T01:24:51;3.80;86.80
55785;DHT22;41709;52.536;5.688;2023-02-15T01:27:17;3.70;86.40
55785;DHT22;41709;52.536;5.688;2023-02-15T01:29:43;3.70;86.60
55785;DHT22;41709;52.536;5.688;2023-02-15T01:32:08;3.70;86.50
55785;DHT22;41709;52.536;5.688;2023-02-15T01:34:34;3.70;86.60
55785;DHT22;41709;52.536;5.688;2023-02-15T01:37:00;3.70;86.40
55785;DHT22;41709;52.536;5.688;2023-02-15T01:39:26;3.60;86.20
55785;DHT22;41709;52.536;5.688;2023-02-15T01:41:51;3.60;86.10
55785;DHT22;41709;52.536;5.688;2023-02-15T01:47:09;3.50;85.70
55785;DHT22;41709;52.536;5.688;2023-02-15T01:49:36;3.50;85.70
55785;DHT22;41709;52.536;5.688;2023-02-15T01:52:02;3.40;85.50
55785;DHT22;41709;52.536;5.688;2023-02-15T01:54:31;3.40;85.30
55785;DHT22;41709;52.536;5.688;2023-02-15T01:57:02;3.40;85.10
55785;DHT22;41709;52.536;5.688;2023-02-15T01:59:31;3.30;85.00
55785;DHT22;41709;52.536;5.688;2023-02-15T02:01:59;3.30;85.20
55785;DHT22;41709;52.536;5.688;2023-02-15T02:04:41;3.30;85.20
55785;DHT22;41709;52.536;5.688;2023-02-15T02:07:12;3.30;85.30
55785;DHT22;41709;52.536;5.688;2023-02-15T02:09:39;3.20;85.30
55785;DHT22;41709;52.536;5.688;2023-02-15T02:12:05;3.20;85.50
55785;DHT22;41709;52.536;5.688;2023-02-15T02:14:31;3.20;85.50
55785;DHT22;41709;52.536;5.688;2023-02-15T02:20:15;3.10;85.80
55785;DHT22;41709;52.536;5.688;2023-02-15T02:27:39;3.10;86.30
55785;DHT22;41709;52.536;5.688;2023-02-15T02:30:20;3.10;86.60
55785;DHT22;41709;52.536;5.688;2023-02-15T02:35:48;3.00;86.90
55785;DHT22;41709;52.536;5.688;2023-02-15T02:38:23;3.00;86.80
55785;DHT22;41709;52.536;5.688;2023-02-15T02:43:54;3.00;86.70
55785;DHT22;41709;52.536;5.688;2023-02-15T02:46:33;3.00;86.60
55785;DHT22;41709;52.536;5.688;2023-02-15T02:49:01;3.00;86.60
55785;DHT22;41709;52.536;5.688;2023-02-15T02:51:27;3.00;86.70
55785;DHT22;41709;52.536;5.688;2023-02-15T02:53:55;3.00;86.70
55785;DHT22;41709;52.536;5.688;2023-02-15T02:56:32;2.90;86.50
55785;DHT22;41709;52.536;5.688;2023-02-15T02:59:23;2.90;86.30
55785;DHT22;41709;52.536;5.688;2023-02-15T03:01:55;2.90;86.90
55785;DHT22;41709;52.536;5.688;2023-02-15T03:04:28;2.90;86.20
55785;DHT22;41709;52.536;5.688;2023-02-15T03:07:00;2.90;86.20
55785;DHT22;41709;52.536;5.688;2023-02-15T03:09:33;2.80;86.20
55785;DHT22;41709;52.536;5.688;2023-02-15T03:12:08;2.80;87.20
55785;DHT22;41709;52.536;5.688;2023-02-15T03:14:35;2.80;87.40
55785;DHT22;41709;52.536;5.688;2023-02-15T03:17:01;2.80;86.70
55785;DHT22;41709;52.536;5.688;2023-02-15T03:19:30;2.80;86.70
55785;DHT22;41709;52.536;5.688;2023-02-15T03:22:07;2.70;86.60
55785;DHT22;41709;52.536;5.688;2023-02-15T03:27:31;2.70;86.70
55785;DHT22;41709;52.536;5.688;2023-02-15T03:29:59;2.70;86.70
55785;DHT22;41709;52.536;5.688;2023-02-15T03:32:28;2.70;86.90
55785;DHT22;41709;52.536;5.688;2023-02-15T03:34:55;2.70;87.20
55785;DHT22;41709;52.536;5.688;2023-02-15T03:37:30;2.70;87.50
55785;DHT22;41709;52.536;5.688;2023-02-15T03:40:04;2.70;87.70
55785;DHT22;41709;52.536;5.688;2023-02-15T03:43:07;2.70;88.00
55785;DHT22;41709;52.536;5.688;2023-02-15T03:45:35;2.70;88.30
55785;DHT22;41709;52.536;5.688;2023-02-15T03:48:03;2.70;88.60
55785;DHT22;41709;52.536;5.688;2023-02-15T03:50:31;2.70;88.90
55785;DHT22;41709;52.536;5.688;2023-02-15T03:53:19;2.70;89.00
55785;DHT22;41709;52.536;5.688;2023-02-15T03:55:47;2.80;89.10
55785;DHT22;41709;52.536;5.688;2023-02-15T03:58:13;2.80;89.00
55785;DHT22;41709;52.536;5.688;2023-02-15T04:01:00;2.80;89.00
55785;DHT22;41709;52.536;5.688;2023-02-15T04:04:06;2.90;89.00
55785;DHT22;41709;52.536;5.688;2023-02-15T04:06:33;2.80;88.90
55785;DHT22;41709;52.536;5.688;2023-02-15T04:08:58;2.80;89.00
55785;DHT22;41709;52.536;5.688;2023-02-15T04:11:42;2.80;89.00
55785;DHT22;41709;52.536;5.688;2023-02-15T04:14:08;2.80;88.80
55785;DHT22;41709;52.536;5.688;2023-02-15T04:16:52;2.80;88.70
55785;DHT22;41709;52.536;5.688;2023-02-15T04:19:17;2.80;88.80
55785;DHT22;41709;52.536;5.688;2023-02-15T04:22:01;2.90;89.00
55785;DHT22;41709;52.536;5.688;2023-02-15T04:24:46;2.80;88.80
55785;DHT22;41709;52.536;5.688;2023-02-15T04:27:30;2.80;88.50
55785;DHT22;41709;52.536;5.688;2023-02-15T04:29:55;2.80;88.50
55785;DHT22;41709;52.536;5.688;2023-02-15T04:32:21;2.80;88.40
55785;DHT22;41709;52.536;5.688;2023-02-15T04:34:46;2.70;88.40
55785;DHT22;41709;52.536;5.688;2023-02-15T04:37:12;2.70;88.60
55785;DHT22;41709;52.536;5.688;2023-02-15T04:39:37;2.70;88.70
55785;DHT22;41709;52.536;5.688;2023-02-15T04:42:03;2.70;88.80
55785;DHT22;41709;52.536;5.688;2023-02-15T04:44:29;2.70;88.80
55785;DHT22;41709;52.536;5.688;2023-02-15T04:46:54;2.70;89.00
55785;DHT22;41709;52.536;5.688;2023-02-15T04:49:20;2.80;88.90
55785;DHT22;41709;52.536;5.688;2023-02-15T04:51:45;2.70;88.90
55785;DHT22;41709;52.536;5.688;2023-02-15T04:54:11;2.80;89.00
55785;DHT22;41709;52.536;5.688;2023-02-15T04:56:37;2.80;88.90
55785;DHT22;41709;52.536;5.688;2023-02-15T04:59:04;2.70;88.80
55785;DHT22;41709;52.536;5.688;2023-02-15T05:01:29;2.70;88.60
55785;DHT22;41709;52.536;5.688;2023-02-15T05:03:56;2.70;88.50
55785;DHT22;41709;52.536;5.688;2023-02-15T05:06:21;2.70;88.50
55785;DHT22;41709;52.536;5.688;2023-02-15T05:08:47;2.70;88.40
55785;DHT22;41709;52.536;5.688;2023-02-15T05:11:12;2.70;88.30
55785;DHT22;41709;52.536;5.688;2023-02-15T05:13:38;2.70;88.20
55785;DHT22;41709;52.536;5.688;2023-02-15T05:16:03;2.70;88.20
55785;DHT22;41709;52.536;5.688;2023-02-15T05:18:29;2.60;88.20
55785;DHT22;41709;52.536;5.688;2023-02-15T05:20:55;2.60;88.50
55785;DHT22;41709;52.536;5.688;2023-02-15T05:23:20;2.60;88.70
55785;DHT22;41709;52.536;5.688;2023-02-15T05:25:50;2.60;89.60
55785;DHT22;41709;52.536;5.688;2023-02-15T05:28:36;2.60;89.00
55785;DHT22;41709;52.536;5.688;2023-02-15T05:31:05;2.60;89.10
55785;DHT22;41709;52.536;5.688;2023-02-15T05:33:31;2.60;88.90
55785;DHT22;41709;52.536;5.688;2023-02-15T05:35:57;2.60;88.90
55785;DHT22;41709;52.536;5.688;2023-02-15T05:38:23;2.60;88.80
55785;DHT22;41709;52.536;5.688;2023-02-15T05:40:50;2.60;88.70
55785;DHT22;41709;52.536;5.688;2023-02-15T05:43:16;2.50;88.60
55785;DHT22;41709;52.536;5.688;2023-02-15T05:45:48;2.50;88.60
55785;DHT22;41709;52.536;5.688;2023-02-15T05:48:15;2.50;88.40
55785;DHT22;41709;52.536;5.688;2023-02-15T05:50:40;2.50;88.40
55785;DHT22;41709;52.536;5.688;2023-02-15T05:53:06;2.50;88.30
55785;DHT22;41709;52.536;5.688;2023-02-15T05:55:32;2.40;88.30
55785;DHT22;41709;52.536;5.688;2023-02-15T05:57:57;2.50;88.50
55785;DHT22;41709;52.536;5.688;2023-02-15T06:00:23;2.40;88.40
55785;DHT22;41709;52.536;5.688;2023-02-15T06:02:48;2.40;88.30
55785;DHT22;41709;52.536;5.688;2023-02-15T06:05:14;2.40;88.30
55785;DHT22;41709;52.536;5.688;2023-02-15T06:07:43;2.40;88.30
55785;DHT22;41709;52.536;5.688;2023-02-15T06:10:10;2.40;88.40
55785;DHT22;41709;52.536;5.688;2023-02-15T06:12:35;2.30;88.50
55785;DHT22;41709;52.536;5.688;2023-02-15T06:15:01;2.30;88.70
55785;DHT22;41709;52.536;5.688;2023-02-15T06:17:26;2.30;88.80
55785;DHT22;41709;52.536;5.688;2023-02-15T06:19:52;2.30;88.90
55785;DHT22;41709;52.536;5.688;2023-02-15T06:22:17;2.40;88.90
55785;DHT22;41709;52.536;5.688;2023-02-15T06:24:43;2.30;88.90
55785;DHT22;41709;52.536;5.688;2023-02-15T06:27:09;2.40;89.10
55785;DHT22;41709;52.536;5.688;2023-02-15T06:29:35;2.40;89.10
55785;DHT22;41709;52.536;5.688;2023-02-15T06:32:01;2.30;89.20
55785;DHT22;41709;52.536;5.688;2023-02-15T06:34:26;2.40;89.40
55785;DHT22;41709;52.536;5.688;2023-02-15T06:36:52;2.40;89.70
55785;DHT22;41709;52.536;5.688;2023-02-15T06:39:17;2.40;89.90
55785;DHT22;41709;52.536;5.688;2023-02-15T06:41:43;2.40;90.00
55785;DHT22;41709;52.536;5.688;2023-02-15T06:44:09;2.40;90.00
55785;DHT22;41709;52.536;5.688;2023-02-15T06:46:34;2.40;90.10
55785;DHT22;41709;52.536;5.688;2023-02-15T06:49:00;2.40;90.20
55785;DHT22;41709;52.536;5.688;2023-02-15T06:51:25;2.50;90.20
55785;DHT22;41709;52.536;5.688;2023-02-15T06:53:51;2.50;90.20
55785;DHT22;41709;52.536;5.688;2023-02-15T06:56:16;2.50;90.20
55785;DHT22;41709;52.536;5.688;2023-02-15T06:58:42;2.50;90.20
55785;DHT22;41709;52.536;5.688;2023-02-15T07:01:09;2.50;90.20
55785;DHT22;41709;52.536;5.688;2023-02-15T07:03:35;2.60;90.20
55785;DHT22;41709;52.536;5.688;2023-02-15T07:06:02;2.60;90.20
55785;DHT22;41709;52.536;5.688;2023-02-15T07:08:31;2.50;90.10
55785;DHT22;41709;52.536;5.688;2023-02-15T07:10:56;2.60;90.20
55785;DHT22;41709;52.536;5.688;2023-02-15T07:13:42;2.60;90.20
55785;DHT22;41709;52.536;5.688;2023-02-15T07:16:10;2.60;90.30
55785;DHT22;41709;52.536;5.688;2023-02-15T07:18:36;2.60;90.40
55785;DHT22;41709;52.536;5.688;2023-02-15T07:21:02;2.60;90.40
55785;DHT22;41709;52.536;5.688;2023-02-15T07:23:28;2.70;90.50
55785;DHT22;41709;52.536;5.688;2023-02-15T07:26:00;2.70;90.50
55785;DHT22;41709;52.536;5.688;2023-02-15T07:28:27;2.70;90.40
55785;DHT22;41709;52.536;5.688;2023-02-15T07:30:52;2.70;90.40
55785;DHT22;41709;52.536;5.688;2023-02-15T07:33:18;2.80;90.50
55785;DHT22;41709;52.536;5.688;2023-02-15T07:35:51;2.80;90.40
55785;DHT22;41709;52.536;5.688;2023-02-15T07:38:17;2.80;90.40
55785;DHT22;41709;52.536;5.688;2023-02-15T07:40:44;2.80;90.40
55785;DHT22;41709;52.536;5.688;2023-02-15T07:43:10;2.80;90.40
55785;DHT22;41709;52.536;5.688;2023-02-15T07:45:36;2.90;90.50
55785;DHT22;41709;52.536;5.688;2023-02-15T07:48:02;2.90;90.50
55785;DHT22;41709;52.536;5.688;2023-02-15T07:50:28;2.90;90.50
55785;DHT22;41709;52.536;5.688;2023-02-15T07:52:54;2.90;90.60
55785;DHT22;41709;52.536;5.688;2023-02-15T07:55:20;3.00;90.60
55785;DHT22;41709;52.536;5.688;2023-02-15T07:57:46;3.00;90.60
55785;DHT22;41709;52.536;5.688;2023-02-15T08:00:14;3.00;90.70
55785;DHT22;41709;52.536;5.688;2023-02-15T08:02:41;3.00;90.70
55785;DHT22;41709;52.536;5.688;2023-02-15T08:05:07;3.10;90.70
55785;DHT22;41709;52.536;5.688;2023-02-15T08:07:32;3.10;90.70
55785;DHT22;41709;52.536;5.688;2023-02-15T08:09:58;3.10;90.60
55785;DHT22;41709;52.536;5.688;2023-02-15T08:12:26;3.20;90.70
55785;DHT22;41709;52.536;5.688;2023-02-15T08:14:52;3.20;90.60
55785;DHT22;41709;52.536;5.688;2023-02-15T08:17:17;3.20;90.60
55785;DHT22;41709;52.536;5.688;2023-02-15T08:19:43;3.20;90.60
55785;DHT22;41709;52.536;5.688;2023-02-15T08:22:12;3.20;90.60
55785;DHT22;41709;52.536;5.688;2023-02-15T08:24:39;3.20;90.60
55785;DHT22;41709;52.536;5.688;2023-02-15T08:27:07;3.30;90.60
55785;DHT22;41709;52.536;5.688;2023-02-15T08:29:33;3.30;90.60
55785;DHT22;41709;52.536;5.688;2023-02-15T08:32:05;3.30;90.60
55785;DHT22;41709;52.536;5.688;2023-02-15T08:34:34;3.40;90.60
55785;DHT22;41709;52.536;5.688;2023-02-15T08:37:00;3.40;90.70
55785;DHT22;41709;52.536;5.688;2023-02-15T08:39:26;3.40;90.70
55785;DHT22;41709;52.536;5.688;2023-02-15T08:41:52;3.50;90.70
55785;DHT22;41709;52.536;5.688;2023-02-15T08:44:19;3.50;90.80
55785;DHT22;41709;52.536;5.688;2023-02-15T08:46:45;3.50;90.80
55785;DHT22;41709;52.536;5.688;2023-02-15T08:49:15;3.60;90.90
55785;DHT22;41709;52.536;5.688;2023-02-15T08:51:41;3.70;90.90
55785;DHT22;41709;52.536;5.688;2023-02-15T08:54:13;3.70;90.90
55785;DHT22;41709;52.536;5.688;2023-02-15T08:56:40;3.70;90.90
55785;DHT22;41709;52.536;5.688;2023-02-15T08:59:11;3.80;91.00
55785;DHT22;41709;52.536;5.688;2023-02-15T09:01:37;3.80;90.90
55785;DHT22;41709;52.536;5.688;2023-02-15T09:04:04;3.80;90.90
55785;DHT22;41709;52.536;5.688;2023-02-15T09:06:31;3.90;90.90
55785;DHT22;41709;52.536;5.688;2023-02-15T09:08:56;4.00;90.90
55785;DHT22;41709;52.536;5.688;2023-02-15T09:11:25;4.00;90.90
55785;DHT22;41709;52.536;5.688;2023-02-15T09:13:58;4.10;90.80
55785;DHT22;41709;52.536;5.688;2023-02-15T09:16:26;4.10;90.80
55785;DHT22;41709;52.536;5.688;2023-02-15T09:18:52;4.20;90.80
55785;DHT22;41709;52.536;5.688;2023-02-15T09:21:20;4.20;90.70
55785;DHT22;41709;52.536;5.688;2023-02-15T09:23:49;4.20;90.70
55785;DHT22;41709;52.536;5.688;2023-02-15T09:26:17;4.30;90.70
55785;DHT22;41709;52.536;5.688;2023-02-15T09:28:43;4.60;90.70
55785;DHT22;41709;52.536;5.688;2023-02-15T09:33:37;4.40;90.60
55785;DHT22;41709;52.536;5.688;2023-02-15T09:36:04;4.50;90.60
55785;DHT22;41709;52.536;5.688;2023-02-15T09:38:30;4.50;90.60
55785;DHT22;41709;52.536;5.688;2023-02-15T09:49:47;4.80;90.50
55785;DHT22;41709;52.536;5.688;2023-02-15T10:00:57;5.00;90.50
55785;DHT22;41709;52.536;5.688;2023-02-15T10:09:00;5.20;90.50
55785;DHT22;41709;52.536;5.688;2023-02-15T10:17:32;5.40;90.40
55785;DHT22;41709;52.536;5.688;2023-02-15T10:25:43;5.70;90.00
55785;DHT22;41709;52.536;5.688;2023-02-15T10:28:38;5.70;89.40
55785;DHT22;41709;52.536;5.688;2023-02-15T10:33:43;5.80;89.10
55785;DHT22;41709;52.536;5.688;2023-02-15T10:36:40;6.10;89.20
55785;DHT22;41709;52.536;5.688;2023-02-15T10:39:19;6.00;89.10
55785;DHT22;41709;52.536;5.688;2023-02-15T10:47:52;6.30;88.10
55785;DHT22;41709;52.536;5.688;2023-02-15T10:50:45;6.30;87.80
55785;DHT22;41709;52.536;5.688;2023-02-15T11:04:45;6.70;87.60
55785;DHT22;41709;52.536;5.688;2023-02-15T11:09:49;6.80;85.80
55785;DHT22;41709;52.536;5.688;2023-02-15T11:12:24;6.90;85.20
55785;DHT22;41709;52.536;5.688;2023-02-15T11:17:38;7.00;84.40
55785;DHT22;41709;52.536;5.688;2023-02-15T11:20:38;7.10;83.80
55785;DHT22;41709;52.536;5.688;2023-02-15T11:23:14;7.10;83.40
55785;DHT22;41709;52.536;5.688;2023-02-15T11:25:43;7.20;83.10
55785;DHT22;41709;52.536;5.688;2023-02-15T11:28:19;7.30;82.40
55785;DHT22;41709;52.536;5.688;2023-02-15T11:30:51;7.30;81.70
55785;DHT22;41709;52.536;5.688;2023-02-15T11:35:50;7.50;81.60
55785;DHT22;41709;52.536;5.688;2023-02-15T11:38:24;7.60;81.60
55785;DHT22;41709;52.536;5.688;2023-02-15T11:43:49;7.70;81.20
55785;DHT22;41709;52.536;5.688;2023-02-15T11:46:16;7.80;81.60
55785;DHT22;41709;52.536;5.688;2023-02-15T11:48:44;8.00;81.00
55785;DHT22;41709;52.536;5.688;2023-02-15T11:51:14;8.00;81.10
55785;DHT22;41709;52.536;5.688;2023-02-15T11:53:41;8.10;80.40
55785;DHT22;41709;52.536;5.688;2023-02-15T11:56:20;8.20;79.80
55785;DHT22;41709;52.536;5.688;2023-02-15T11:58:50;8.30;79.30
55785;DHT22;41709;52.536;5.688;2023-02-15T12:09:36;8.60;79.00
55785;DHT22;41709;52.536;5.688;2023-02-15T12:12:34;8.70;78.90
55785;DHT22;41709;52.536;5.688;2023-02-15T12:15:10;8.90;78.70
55785;DHT22;41709;52.536;5.688;2023-02-15T12:17:39;8.90;78.00
55785;DHT22;41709;52.536;5.688;2023-02-15T12:22:48;9.20;77.20
55785;DHT22;41709;52.536;5.688;2023-02-15T12:25:26;9.20;77.10
55785;DHT22;41709;52.536;5.688;2023-02-15T12:27:52;9.30;77.00
55785;DHT22;41709;52.536;5.688;2023-02-15T12:30:33;9.40;76.90
55785;DHT22;41709;52.536;5.688;2023-02-15T12:35:42;9.60;75.20
55785;DHT22;41709;52.536;5.688;2023-02-15T12:40:34;9.80;73.10
55785;DHT22;41709;52.536;5.688;2023-02-15T12:43:01;9.80;73.30
55785;DHT22;41709;52.536;5.688;2023-02-15T12:45:36;9.90;73.60
55785;DHT22;41709;52.536;5.688;2023-02-15T12:48:19;9.90;73.10
55785;DHT22;41709;52.536;5.688;2023-02-15T12:53:20;10.00;72.60
55785;DHT22;41709;52.536;5.688;2023-02-15T12:58:28;10.10;72.20
55785;DHT22;41709;52.536;5.688;2023-02-15T13:01:17;10.20;72.90
55785;DHT22;41709;52.536;5.688;2023-02-15T13:06:27;10.30;72.00
55785;DHT22;41709;52.536;5.688;2023-02-15T13:09:05;10.40;71.20
55785;DHT22;41709;52.536;5.688;2023-02-15T13:11:31;10.50;71.30
55785;DHT22;41709;52.536;5.688;2023-02-15T13:14:16;10.50;70.80
55785;DHT22;41709;52.536;5.688;2023-02-15T13:16:45;10.60;71.30
55785;DHT22;41709;52.536;5.688;2023-02-15T13:19:15;10.70;72.10
55785;DHT22;41709;52.536;5.688;2023-02-15T13:21:45;10.70;71.60
55785;DHT22;41709;52.536;5.688;2023-02-15T13:24:21;10.80;70.40
55785;DHT22;41709;52.536;5.688;2023-02-15T13:26:48;10.90;70.50
55785;DHT22;41709;52.536;5.688;2023-02-15T13:29:18;10.90;71.20
55785;DHT22;41709;52.536;5.688;2023-02-15T13:31:46;11.00;70.20
55785;DHT22;41709;52.536;5.688;2023-02-15T13:34:31;11.10;70.40
55785;DHT22;41709;52.536;5.688;2023-02-15T13:37:12;11.20;70.80
55785;DHT22;41709;52.536;5.688;2023-02-15T13:52:46;11.50;69.30
55785;DHT22;41709;52.536;5.688;2023-02-15T14:01:08;11.50;69.70
55785;DHT22;41709;52.536;5.688;2023-02-15T14:03:52;11.40;69.50
55785;DHT22;41709;52.536;5.688;2023-02-15T14:06:43;11.40;69.80
55785;DHT22;41709;52.536;5.688;2023-02-15T14:09:33;11.40;69.50
55785;DHT22;41709;52.536;5.688;2023-02-15T14:15:03;11.30;69.40
55785;DHT22;41709;52.536;5.688;2023-02-15T14:20:39;11.30;69.50
55785;DHT22;41709;52.536;5.688;2023-02-15T14:23:23;11.30;70.50
55785;DHT22;41709;52.536;5.688;2023-02-15T14:31:47;11.40;69.10
55785;DHT22;41709;52.536;5.688;2023-02-15T14:37:11;11.50;69.50
55785;DHT22;41709;52.536;5.688;2023-02-15T14:43:26;11.60;69.90
55785;DHT22;41709;52.536;5.688;2023-02-15T14:45:48;11.60;70.10
55785;DHT22;41709;52.536;5.688;2023-02-15T14:48:38;11.70;69.90
55785;DHT22;41709;52.536;5.688;2023-02-15T14:51:08;11.70;70.10
55785;DHT22;41709;52.536;5.688;2023-02-15T14:53:35;11.80;69.60
55785;DHT22;41709;52.536;5.688;2023-02-15T14:56:20;11.80;69.50
55785;DHT22;41709;52.536;5.688;2023-02-15T15:01:32;11.90;69.60
55785;DHT22;41709;52.536;5.688;2023-02-15T15:04:08;11.80;69.80
55785;DHT22;41709;52.536;5.688;2023-02-15T15:06:37;11.80;70.30
55785;DHT22;41709;52.536;5.688;2023-02-15T15:09:25;11.90;70.40
55785;DHT22;41709;52.536;5.688;2023-02-15T15:11:53;11.80;70.20
55785;DHT22;41709;52.536;5.688;2023-02-15T15:16:57;11.80;70.30
55785;DHT22;41709;52.536;5.688;2023-02-15T15:22:27;11.80;70.40
55785;DHT22;41709;52.536;5.688;2023-02-15T15:25:01;11.80;70.60
55785;DHT22;41709;52.536;5.688;2023-02-15T15:27:51;11.90;70.60
55785;DHT22;41709;52.536;5.688;2023-02-15T15:35:33;11.80;70.40
55785;DHT22;41709;52.536;5.688;2023-02-15T15:43:39;11.80;69.80
55785;DHT22;41709;52.536;5.688;2023-02-15T15:48:41;11.70;69.60
55785;DHT22;41709;52.536;5.688;2023-02-15T15:51:25;11.70;69.60
55785;DHT22;41709;52.536;5.688;2023-02-15T15:53:53;11.60;69.70
55785;DHT22;41709;52.536;5.688;2023-02-15T15:56:32;11.60;69.70
55785;DHT22;41709;52.536;5.688;2023-02-15T15:59:01;11.50;69.90
55785;DHT22;41709;52.536;5.688;2023-02-15T16:01:29;11.40;69.90
55785;DHT22;41709;52.536;5.688;2023-02-15T16:03:58;11.40;70.20
55785;DHT22;41709;52.536;5.688;2023-02-15T16:06:37;11.40;70.50
55785;DHT22;41709;52.536;5.688;2023-02-15T16:11:36;11.30;70.40
55785;DHT22;41709;52.536;5.688;2023-02-15T16:14:12;11.20;70.50
55785;DHT22;41709;52.536;5.688;2023-02-15T16:16:39;11.20;70.70
55785;DHT22;41709;52.536;5.688;2023-02-15T16:19:04;11.20;70.60
55785;DHT22;41709;52.536;5.688;2023-02-15T16:21:36;11.10;70.40
55785;DHT22;41709;52.536;5.688;2023-02-15T16:24:09;11.10;70.50
55785;DHT22;41709;52.536;5.688;2023-02-15T16:29:42;11.00;70.90
55785;DHT22;41709;52.536;5.688;2023-02-15T16:32:24;10.90;71.00
55785;DHT22;41709;52.536;5.688;2023-02-15T16:34:58;10.90;71.20
55785;DHT22;41709;52.536;5.688;2023-02-15T16:37:26;10.80;71.30
55785;DHT22;41709;52.536;5.688;2023-02-15T16:39:54;10.80;71.40
55785;DHT22;41709;52.536;5.688;2023-02-15T16:42:20;10.70;71.50
55785;DHT22;41709;52.536;5.688;2023-02-15T16:44:49;10.60;71.60
55785;DHT22;41709;52.536;5.688;2023-02-15T16:47:25;10.60;71.90
55785;DHT22;41709;52.536;5.688;2023-02-15T16:49:52;10.50;72.10
55785;DHT22;41709;52.536;5.688;2023-02-15T16:52:21;10.50;72.30
55785;DHT22;41709;52.536;5.688;2023-02-15T16:55:00;10.40;72.30
55785;DHT22;41709;52.536;5.688;2023-02-15T16:57:35;10.40;72.50
55785;DHT22;41709;52.536;5.688;2023-02-15T17:00:06;10.30;72.60
55785;DHT22;41709;52.536;5.688;2023-02-15T17:02:33;10.30;72.60
55785;DHT22;41709;52.536;5.688;2023-02-15T17:07:51;10.20;73.00
55785;DHT22;41709;52.536;5.688;2023-02-15T17:10:33;10.10;73.00
55785;DHT22;41709;52.536;5.688;2023-02-15T17:13:15;10.10;73.10
55785;DHT22;41709;52.536;5.688;2023-02-15T17:18:39;10.00;73.20
55785;DHT22;41709;52.536;5.688;2023-02-15T17:21:12;9.90;73.40
55785;DHT22;41709;52.536;5.688;2023-02-15T17:23:43;9.90;73.60
55785;DHT22;41709;52.536;5.688;2023-02-15T17:26:22;9.80;73.70
55785;DHT22;41709;52.536;5.688;2023-02-15T17:28:54;9.80;73.70
55785;DHT22;41709;52.536;5.688;2023-02-15T17:31:21;9.70;73.70
55785;DHT22;41709;52.536;5.688;2023-02-15T17:33:49;9.70;73.80
55785;DHT22;41709;52.536;5.688;2023-02-15T17:36:24;9.60;73.70
55785;DHT22;41709;52.536;5.688;2023-02-15T17:41:29;9.50;74.00
55785;DHT22;41709;52.536;5.688;2023-02-15T17:43:56;9.50;74.10
55785;DHT22;41709;52.536;5.688;2023-02-15T17:46:22;9.50;74.10
55785;DHT22;41709;52.536;5.688;2023-02-15T17:48:50;9.40;74.20
55785;DHT22;41709;52.536;5.688;2023-02-15T17:51:17;9.40;74.40
55785;DHT22;41709;52.536;5.688;2023-02-15T17:53:43;9.40;74.60
55785;DHT22;41709;52.536;5.688;2023-02-15T17:56:30;9.40;74.50
55785;DHT22;41709;52.536;5.688;2023-02-15T17:58:55;9.30;74.50
55785;DHT22;41709;52.536;5.688;2023-02-15T18:01:21;9.30;74.50
55785;DHT22;41709;52.536;5.688;2023-02-15T18:04:09;9.30;74.50
55785;DHT22;41709;52.536;5.688;2023-02-15T18:06:55;9.40;74.50
55785;DHT22;41709;52.536;5.688;2023-02-15T18:09:39;9.40;75.00
55785;DHT22;41709;52.536;5.688;2023-02-15T18:14:54;9.30;74.40
55785;DHT22;41709;52.536;5.688;2023-02-15T18:19:51;9.20;74.60
55785;DHT22;41709;52.536;5.688;2023-02-15T18:22:18;9.20;74.60
55785;DHT22;41709;52.536;5.688;2023-02-15T18:24:46;9.20;74.70
55785;DHT22;41709;52.536;5.688;2023-02-15T18:27:12;9.20;74.70
55785;DHT22;41709;52.536;5.688;2023-02-15T18:29:38;9.20;74.70
55785;DHT22;41709;52.536;5.688;2023-02-15T18:32:14;9.10;74.90
55785;DHT22;41709;52.536;5.688;2023-02-15T18:34:42;9.10;74.80
55785;DHT22;41709;52.536;5.688;2023-02-15T18:37:15;9.10;74.80
55785;DHT22;41709;52.536;5.688;2023-02-15T18:39:46;9.10;74.90
55785;DHT22;41709;52.536;5.688;2023-02-15T18:42:26;9.10;75.00
55785;DHT22;41709;52.536;5.688;2023-02-15T18:44:58;9.10;75.00
55785;DHT22;41709;52.536;5.688;2023-02-15T18:47:24;9.10;75.00
55785;DHT22;41709;52.536;5.688;2023-02-15T18:49:50;9.00;75.00
55785;DHT22;41709;52.536;5.688;2023-02-15T18:52:18;9.00;75.10
55785;DHT22;41709;52.536;5.688;2023-02-15T18:54:45;9.00;75.20
55785;DHT22;41709;52.536;5.688;2023-02-15T18:57:14;9.00;75.40
55785;DHT22;41709;52.536;5.688;2023-02-15T18:59:41;9.00;75.30
55785;DHT22;41709;52.536;5.688;2023-02-15T19:02:15;8.90;75.40
55785;DHT22;41709;52.536;5.688;2023-02-15T19:04:41;8.90;75.50
55785;DHT22;41709;52.536;5.688;2023-02-15T19:07:21;8.90;75.80
55785;DHT22;41709;52.536;5.688;2023-02-15T19:09:51;8.90;75.90
55785;DHT22;41709;52.536;5.688;2023-02-15T19:12:17;8.90;76.00
55785;DHT22;41709;52.536;5.688;2023-02-15T19:14:44;8.90;76.20